Time;durP1;ratioP1;P1;durP2;ratioP2;P2;SDS_P1;SDS_P2;PMS_P1;PMS_P2;Temp;Humidity;BMP_temperature;BMP_pressure;BME280_temperature;BME280_humidity;BME280_pressure;Samples;Min_cycle;Max_cycle;Signal;HPM_P1;HPM_P2
2022/02/06 00:00:20;;;;;;;;;61.25;46.25;;;;;;;;5041437;28;51710;-56
2022/02/06 00:03:05;;;;;;;;;65.75;48.75;;;;;;;;5041669;28;51181;-52
2022/02/06 00:05:50;;;;;;;;;62.75;44.00;;;;;;;;5024820;28;51074;-53
2022/02/06 00:08:34;;;;;;;;;65.75;48.50;;;;;;;;5044571;28;51538;-52
2022/02/06 00:11:18;;;;;;;;;56.25;42.50;;;;;;;;5044677;28;51686;-49
2022/02/06 00:14:03;;;;;;;;;65.25;49.75;;;;;;;;5044229;28;51163;-50
2022/02/06 00:16:47;;;;;;;;;59.25;42.25;;;;;;;;5043850;28;51253;-53
2022/02/06 00:19:32;;;;;;;;;61.75;44.75;;;;;;;;5042679;28;51578;-58
2022/02/06 00:22:28;;;;;;;;;58.50;47.75;;;;;;;;5043056;28;51630;-51
2022/02/06 00:25:21;;;;;;;;;58.00;44.50;;;;;;;;5041458;28;51407;-56
2022/02/06 00:31:02;;;;;;;;;60.75;46.75;;;;;;;;5042662;28;51168;-54
2022/02/06 00:34:14;;;;;;;;;53.50;43.00;;;;;;;;5042695;28;51168;-54
2022/02/06 00:39:34;;;;;;;;;63.25;47.50;;;;;;;;5041139;28;52323;-51
2022/02/06 00:42:19;;;;;;;;;62.50;44.50;;;;;;;;5040996;28;51168;-52
2022/02/06 00:45:04;;;;;;;;;66.25;48.50;;;;;;;;5039372;28;51042;-49
2022/02/06 00:47:48;;;;;;;;;61.25;46.50;;;;;;;;5039080;28;51158;-52
2022/02/06 00:50:36;;;;;;;;;67.25;49.25;;;;;;;;5039587;28;51251;-49
2022/02/06 00:53:20;;;;;;;;;62.25;49.50;;;;;;;;5037799;28;51378;-52
2022/02/06 00:56:04;;;;;;;;;66.25;49.50;;;;;;;;5038119;28;51180;-49
2022/02/06 00:58:49;;;;;;;;;58.25;44.50;;;;;;;;5020189;28;51465;-57
2022/02/06 01:01:33;;;;;;;;;63.00;46.50;;;;;;;;5021445;28;51749;-51
2022/02/06 01:04:17;;;;;;;;;66.50;50.00;;;;;;;;5038307;28;51222;-54
2022/02/06 01:07:02;;;;;;;;;61.75;46.25;;;;;;;;5039295;28;51168;-53
2022/02/06 01:09:47;;;;;;;;;62.75;47.50;;;;;;;;5038823;28;51326;-53
2022/02/06 01:12:34;;;;;;;;;63.75;49.25;;;;;;;;5038963;28;51144;-51
2022/02/06 01:15:23;;;;;;;;;60.75;48.00;;;;;;;;5037979;28;51831;-51
2022/02/06 01:18:15;;;;;;;;;65.75;48.00;;;;;;;;5038838;28;51207;-57
2022/02/06 01:21:06;;;;;;;;;64.50;49.00;;;;;;;;5038713;28;51172;-50
2022/02/06 01:24:02;;;;;;;;;62.50;46.50;;;;;;;;5039069;28;51538;-47
2022/02/06 01:32:20;;;;;;;;;61.25;46.25;;;;;;;;5036925;28;51180;-47
2022/02/06 01:35:11;;;;;;;;;65.25;48.25;;;;;;;;5035597;28;51413;-53
2022/02/06 01:43:45;;;;;;;;;64.75;48.00;;;;;;;;5038201;28;51167;-55
2022/02/06 02:05:28;;;;;;;;;65.75;49.50;;;;;;;;5035942;28;51418;-56
2022/02/06 02:11:28;;;;;;;;;64.25;46.50;;;;;;;;5036986;28;51187;-51
2022/02/06 02:46:39;;;;;;;;;58.00;45.00;;;;;;;;5038115;28;51724;-50
2022/02/06 02:49:28;;;;;;;;;60.75;45.25;;;;;;;;5037481;28;51109;-53
2022/02/06 02:52:23;;;;;;;;;62.25;47.00;;;;;;;;5036202;28;51169;-53
2022/02/06 02:58:16;;;;;;;;;64.50;46.00;;;;;;;;5037287;28;51147;-55
2022/02/06 03:03:47;;;;;;;;;62.00;46.50;;;;;;;;5036898;28;51165;-49
2022/02/06 03:06:31;;;;;;;;;58.00;45.00;;;;;;;;5037079;28;51068;-55
2022/02/06 03:09:17;;;;;;;;;58.00;43.00;;;;;;;;5036993;28;51495;-52
2022/02/06 03:12:02;;;;;;;;;62.25;45.25;;;;;;;;5020619;28;51164;-48
2022/02/06 03:14:53;;;;;;;;;61.75;46.25;;;;;;;;5036420;28;51202;-51
2022/02/06 03:17:45;;;;;;;;;60.00;45.25;;;;;;;;5037418;28;51263;-52
2022/02/06 03:20:31;;;;;;;;;75.00;60.00;;;;;;;;5037478;28;51128;-53
2022/02/06 03:23:15;;;;;;;;;77.75;64.00;;;;;;;;5035859;28;51216;-54
2022/02/06 03:26:00;;;;;;;;;79.00;67.00;;;;;;;;5037626;28;51167;-51
2022/02/06 03:28:45;;;;;;;;;76.75;64.00;;;;;;;;5034116;28;51069;-54
2022/02/06 03:31:29;;;;;;;;;85.75;67.25;;;;;;;;5037559;28;51160;-56
2022/02/06 03:34:14;;;;;;;;;131.75;102.25;;;;;;;;5037286;28;51125;-53
2022/02/06 03:36:59;;;;;;;;;76.50;58.50;;;;;;;;5037634;28;51195;-48
2022/02/06 03:39:49;;;;;;;;;83.25;72.00;;;;;;;;5036335;28;51154;-52
2022/02/06 03:42:52;;;;;;;;;79.00;64.50;;;;;;;;5018672;28;51176;-51
2022/02/06 03:45:44;;;;;;;;;79.75;66.50;;;;;;;;5036537;28;51243;-48
2022/02/06 03:48:46;;;;;;;;;78.25;63.75;;;;;;;;5037231;28;51183;-52
2022/02/06 03:51:36;;;;;;;;;79.00;61.00;;;;;;;;5037239;28;51823;-51
2022/02/06 03:54:20;;;;;;;;;78.25;67.00;;;;;;;;5037143;28;51105;-50
2022/02/06 03:57:04;;;;;;;;;76.00;57.00;;;;;;;;5037658;28;51135;-52
2022/02/06 03:59:49;;;;;;;;;73.25;61.00;;;;;;;;5037159;28;51152;-52
2022/02/06 04:02:33;;;;;;;;;76.25;61.50;;;;;;;;5037329;28;51153;-53
2022/02/06 04:05:18;;;;;;;;;75.25;59.25;;;;;;;;5037218;28;51203;-55
2022/02/06 04:08:06;;;;;;;;;76.00;57.50;;;;;;;;5037583;28;51192;-50
2022/02/06 04:10:52;;;;;;;;;75.00;61.25;;;;;;;;5036727;28;51640;-52
2022/02/06 04:13:43;;;;;;;;;71.00;57.50;;;;;;;;5037089;28;51535;-56
2022/02/06 04:16:38;;;;;;;;;86.25;74.50;;;;;;;;5036938;28;51947;-49
2022/02/06 04:19:25;;;;;;;;;97.25;83.25;;;;;;;;5036385;28;51128;-53
2022/02/06 04:22:09;;;;;;;;;92.25;83.00;;;;;;;;5040380;28;51107;-55
2022/02/06 04:24:54;;;;;;;;;92.00;82.00;;;;;;;;5040064;28;51221;-50
2022/02/06 04:27:38;;;;;;;;;88.00;74.75;;;;;;;;5040434;28;51444;-50
2022/02/06 04:30:23;;;;;;;;;85.75;71.50;;;;;;;;5040094;28;51101;-51
2022/02/06 04:33:07;;;;;;;;;84.75;74.00;;;;;;;;5040596;28;51119;-50
2022/02/06 04:35:55;;;;;;;;;78.25;67.75;;;;;;;;5039230;28;51534;-56
2022/02/06 05:17:50;;;;;;;;;77.00;68.00;;;;;;;;5039841;28;51240;-50
2022/02/06 05:20:58;;;;;;;;;85.50;73.75;;;;;;;;5037115;28;51435;-51
2022/02/06 05:23:52;;;;;;;;;86.25;68.75;;;;;;;;5038987;28;51188;-55
2022/02/06 05:27:03;;;;;;;;;85.25;73.25;;;;;;;;5040263;28;51144;-53
2022/02/06 05:32:57;;;;;;;;;82.25;68.00;;;;;;;;5038603;28;51145;-56
2022/02/06 05:35:38;;;;;;;;;83.50;71.25;;;;;;;;5038911;28;51189;-52
2022/02/06 05:38:22;;;;;;;;;77.50;65.50;;;;;;;;5038306;28;51089;-52
2022/02/06 05:41:07;;;;;;;;;77.75;64.75;;;;;;;;5037760;28;51557;-52
2022/02/06 05:43:51;;;;;;;;;81.00;71.75;;;;;;;;5038961;28;51163;-49
2022/02/06 05:46:36;;;;;;;;;80.25;70.00;;;;;;;;5038829;28;51543;-53
2022/02/06 05:49:20;;;;;;;;;80.25;68.50;;;;;;;;5037560;28;51183;-52
2022/02/06 05:52:05;;;;;;;;;83.50;67.00;;;;;;;;5039619;28;51199;-54
2022/02/06 05:54:50;;;;;;;;;80.75;67.25;;;;;;;;5037592;28;52011;-51
2022/02/06 05:57:34;;;;;;;;;82.00;71.00;;;;;;;;5038697;28;51109;-52
2022/02/06 06:00:18;;;;;;;;;80.50;70.25;;;;;;;;5037873;28;51558;-52
2022/02/06 06:03:04;;;;;;;;;79.75;71.75;;;;;;;;5037123;28;51221;-55
2022/02/06 06:05:49;;;;;;;;;85.75;73.50;;;;;;;;5035475;28;52026;-52
2022/02/06 06:08:33;;;;;;;;;94.25;87.25;;;;;;;;5034746;28;51073;-53
2022/02/06 06:11:18;;;;;;;;;90.25;77.00;;;;;;;;5039213;28;51462;-54
2022/02/06 06:14:02;;;;;;;;;95.00;73.50;;;;;;;;5036706;28;51208;-52
2022/02/06 06:16:47;;;;;;;;;88.25;69.25;;;;;;;;5039805;28;51216;-52
2022/02/06 06:19:33;;;;;;;;;98.25;82.25;;;;;;;;5023171;28;51567;-55
2022/02/06 06:22:19;;;;;;;;;119.25;106.75;;;;;;;;5038208;28;51147;-54
2022/02/06 06:25:06;;;;;;;;;135.50;121.25;;;;;;;;5039576;28;51190;-55
2022/02/06 06:27:50;;;;;;;;;155.25;135.50;;;;;;;;5038109;28;51013;-54
2022/02/06 06:30:35;;;;;;;;;139.25;114.75;;;;;;;;5038647;28;51222;-53
2022/02/06 06:33:19;;;;;;;;;143.75;119.25;;;;;;;;5037576;28;51148;-53
2022/02/06 06:36:04;;;;;;;;;112.75;99.50;;;;;;;;5038080;28;51156;-52
2022/02/06 06:38:50;;;;;;;;;98.50;93.50;;;;;;;;5035212;28;51184;-51
2022/02/06 06:41:35;;;;;;;;;100.50;87.50;;;;;;;;5038719;28;51684;-48
2022/02/06 06:44:19;;;;;;;;;96.75;83.00;;;;;;;;5037785;28;51058;-57
2022/02/06 06:47:07;;;;;;;;;109.75;94.75;;;;;;;;5036064;28;51203;-52
2022/02/06 06:49:51;;;;;;;;;114.50;93.75;;;;;;;;5038486;28;51090;-51
2022/02/06 06:52:36;;;;;;;;;96.75;83.50;;;;;;;;5038820;28;51155;-49
2022/02/06 06:55:21;;;;;;;;;116.50;100.75;;;;;;;;5038322;28;51588;-55
2022/02/06 06:58:14;;;;;;;;;107.75;89.00;;;;;;;;5038822;28;51165;-52
2022/02/06 07:03:48;;;;;;;;;97.25;86.75;;;;;;;;5038217;28;51085;-51
2022/02/06 07:06:32;;;;;;;;;101.50;88.25;;;;;;;;5038532;28;51158;-52
2022/02/06 07:09:17;;;;;;;;;89.25;76.25;;;;;;;;5034768;28;51357;-49
2022/02/06 07:12:02;;;;;;;;;99.25;83.50;;;;;;;;5038469;28;51049;-54
2022/02/06 07:14:47;;;;;;;;;102.00;80.50;;;;;;;;5038298;28;51247;-55
2022/02/06 07:17:31;;;;;;;;;95.50;82.75;;;;;;;;5038560;28;51164;-51
2022/02/06 07:20:16;;;;;;;;;93.00;83.50;;;;;;;;5037613;28;51173;-54
2022/02/06 07:23:00;;;;;;;;;89.25;80.50;;;;;;;;5037749;28;51022;-53
2022/02/06 07:25:49;;;;;;;;;96.00;78.25;;;;;;;;5035092;28;51594;-49
2022/02/06 07:28:33;;;;;;;;;91.50;74.00;;;;;;;;5037794;28;51176;-50
2022/02/06 07:31:18;;;;;;;;;87.50;74.25;;;;;;;;5038308;28;51481;-54
2022/02/06 07:34:02;;;;;;;;;80.25;72.50;;;;;;;;5036575;28;51402;-43
2022/02/06 07:36:46;;;;;;;;;78.75;72.00;;;;;;;;5032871;28;51356;-47
2022/02/06 07:39:31;;;;;;;;;89.00;81.75;;;;;;;;5034601;28;51231;-44
2022/02/06 07:42:15;;;;;;;;;81.25;72.00;;;;;;;;5037501;28;51238;-43
2022/02/06 07:45:00;;;;;;;;;96.00;81.75;;;;;;;;5037342;28;51377;-46
2022/02/06 07:47:45;;;;;;;;;80.00;66.00;;;;;;;;5038340;28;51084;-44
2022/02/06 07:50:30;;;;;;;;;85.50;77.25;;;;;;;;5009516;28;51528;-43
2022/02/06 07:53:14;;;;;;;;;89.50;75.25;;;;;;;;5038353;28;51174;-44
2022/02/06 07:55:58;;;;;;;;;78.25;69.75;;;;;;;;5027493;28;51156;-47
2022/02/06 07:58:43;;;;;;;;;77.50;69.75;;;;;;;;5041794;28;51303;-46
2022/02/06 08:01:27;;;;;;;;;74.50;65.00;;;;;;;;5042241;28;51033;-45
2022/02/06 08:04:11;;;;;;;;;83.25;69.50;;;;;;;;5039891;28;51026;-46
2022/02/06 08:06:56;;;;;;;;;83.50;73.75;;;;;;;;5042230;28;51281;-45
2022/02/06 08:09:56;;;;;;;;;78.25;69.75;;;;;;;;5042064;28;51175;-44
2022/02/06 08:12:51;;;;;;;;;80.50;70.75;;;;;;;;5026979;28;51147;-44
2022/02/06 08:15:36;;;;;;;;;81.75;67.25;;;;;;;;5041993;28;51583;-45
2022/02/06 08:18:21;;;;;;;;;85.75;72.00;;;;;;;;5041980;28;51127;-45
2022/02/06 08:27:06;;;;;;;;;74.50;65.75;;;;;;;;4922390;28;51129;-48
2022/02/06 08:29:51;;;;;;;;;82.00;67.25;;;;;;;;4941270;28;51245;-48
2022/02/06 08:32:35;;;;;;;;;76.00;63.75;;;;;;;;4943610;28;51076;-52
2022/02/06 08:35:20;;;;;;;;;77.75;66.75;;;;;;;;4950910;28;51481;-49
2022/02/06 08:38:04;;;;;;;;;78.25;66.50;;;;;;;;4960270;28;51093;-47
2022/02/06 08:40:48;;;;;;;;;74.25;57.75;;;;;;;;4960458;28;51077;-45
2022/02/06 08:43:33;;;;;;;;;74.25;61.00;;;;;;;;4959835;28;51146;-44
2022/02/06 08:46:18;;;;;;;;;72.50;59.75;;;;;;;;4951440;28;51183;-50
2022/02/06 08:49:03;;;;;;;;;73.00;58.75;;;;;;;;4940894;28;51316;-49
2022/02/06 08:51:47;;;;;;;;;69.00;56.50;;;;;;;;4940827;28;51212;-45
2022/02/06 08:54:34;;;;;;;;;73.00;60.50;;;;;;;;4940604;28;51129;-47
2022/02/06 08:57:26;;;;;;;;;70.25;54.25;;;;;;;;4941014;28;51268;-47
2022/02/06 09:00:10;;;;;;;;;69.00;54.25;;;;;;;;4955610;28;51195;-46
2022/02/06 09:02:55;;;;;;;;;72.00;60.00;;;;;;;;4943975;28;51864;-50
2022/02/06 09:05:42;;;;;;;;;70.00;57.75;;;;;;;;5036605;28;51411;-48
2022/02/06 09:08:26;;;;;;;;;66.50;53.00;;;;;;;;5037463;28;51605;-45
2022/02/06 09:11:10;;;;;;;;;70.50;51.50;;;;;;;;5038976;28;52693;-48
2022/02/06 09:13:55;;;;;;;;;67.00;48.25;;;;;;;;5038562;28;51626;-44
2022/02/06 09:16:40;;;;;;;;;62.25;46.25;;;;;;;;5038513;28;51775;-54
2022/02/06 09:19:24;;;;;;;;;60.00;47.50;;;;;;;;5037008;28;51387;-50
2022/02/06 09:22:10;;;;;;;;;63.50;49.00;;;;;;;;5039622;28;51182;-50
2022/02/06 09:24:54;;;;;;;;;61.75;47.00;;;;;;;;5038031;28;51140;-44
2022/02/06 09:27:38;;;;;;;;;55.75;43.00;;;;;;;;5040678;28;51138;-48
2022/02/06 09:30:26;;;;;;;;;64.25;49.00;;;;;;;;5036619;28;51724;-48
2022/02/06 09:35:54;;;;;;;;;60.25;44.75;;;;;;;;5037079;28;51139;-49
2022/02/06 09:38:38;;;;;;;;;62.25;46.00;;;;;;;;5038966;28;51363;-52
2022/02/06 09:41:23;;;;;;;;;64.25;49.25;;;;;;;;5040684;28;51554;-45
2022/02/06 09:44:07;;;;;;;;;62.00;49.75;;;;;;;;5039936;28;51314;-46
2022/02/06 09:46:52;;;;;;;;;62.50;48.75;;;;;;;;5036073;28;51363;-50
2022/02/06 09:49:36;;;;;;;;;64.75;49.00;;;;;;;;5039945;28;51103;-50
2022/02/06 09:52:25;;;;;;;;;64.25;50.00;;;;;;;;5039993;28;51105;-48
2022/02/06 09:55:16;;;;;;;;;66.50;50.00;;;;;;;;5040039;28;51138;-53
2022/02/06 09:58:17;;;;;;;;;63.25;50.00;;;;;;;;5036613;28;51324;-52
2022/02/06 10:01:01;;;;;;;;;64.75;49.00;;;;;;;;5039328;28;51257;-48
2022/02/06 10:03:50;;;;;;;;;57.75;46.25;;;;;;;;5038573;28;51008;-54
2022/02/06 10:06:55;;;;;;;;;62.25;46.25;;;;;;;;5037895;28;51242;-48
2022/02/06 10:09:39;;;;;;;;;55.00;42.25;;;;;;;;5038403;28;51223;-46
2022/02/06 10:12:25;;;;;;;;;59.25;45.75;;;;;;;;5037105;28;51519;-46
2022/02/06 10:15:16;;;;;;;;;60.75;45.75;;;;;;;;5024288;28;51595;-50
2022/02/06 10:18:00;;;;;;;;;60.25;46.25;;;;;;;;5038634;28;52280;-44
2022/02/06 10:20:47;;;;;;;;;51.75;38.25;;;;;;;;5039330;28;51643;-50
2022/02/06 10:23:44;;;;;;;;;56.00;44.00;;;;;;;;5039077;28;51123;-50
2022/02/06 10:27:18;;;;;;;;;62.00;47.75;;;;;;;;5034981;28;51194;-50
2022/02/06 10:29:44;;;;;;;;;58.75;45.75;;;;;;;;5038183;28;51315;-47
2022/02/06 10:32:29;;;;;;;;;61.50;46.50;;;;;;;;5039294;28;51687;-50
2022/02/06 10:35:13;;;;;;;;;61.75;46.00;;;;;;;;5038819;28;51064;-49
2022/02/06 10:37:58;;;;;;;;;60.50;46.50;;;;;;;;5039502;28;51063;-47
2022/02/06 10:40:43;;;;;;;;;60.75;48.25;;;;;;;;5039249;28;51411;-45
2022/02/06 10:43:28;;;;;;;;;63.25;49.25;;;;;;;;5039759;28;51605;-49
2022/02/06 10:46:13;;;;;;;;;62.25;47.50;;;;;;;;5039093;28;51525;-45
2022/02/06 10:48:59;;;;;;;;;63.75;46.75;;;;;;;;5036708;28;51134;-45
2022/02/06 10:51:48;;;;;;;;;58.25;46.50;;;;;;;;5039196;28;51021;-49
2022/02/06 10:54:34;;;;;;;;;55.50;44.75;;;;;;;;5026868;28;51210;-43
2022/02/06 10:57:18;;;;;;;;;59.75;46.25;;;;;;;;5037364;28;51139;-46
2022/02/06 11:00:05;;;;;;;;;57.00;46.25;;;;;;;;5030955;28;51116;-49
2022/02/06 11:02:59;;;;;;;;;62.00;45.75;;;;;;;;5039209;28;51163;-53
2022/02/06 11:05:50;;;;;;;;;59.75;45.50;;;;;;;;5030067;28;51478;-51
2022/02/06 11:08:37;;;;;;;;;58.00;45.25;;;;;;;;5037220;28;51069;-49
2022/02/06 11:11:31;;;;;;;;;61.75;47.00;;;;;;;;5032360;28;51615;-48
2022/02/06 11:14:21;;;;;;;;;48.25;36.75;;;;;;;;5028357;28;51055;-45
2022/02/06 11:17:16;;;;;;;;;60.50;45.00;;;;;;;;5034096;28;51158;-50
2022/02/06 11:20:00;;;;;;;;;53.75;41.50;;;;;;;;5033128;28;51144;-48
2022/02/06 11:22:51;;;;;;;;;61.75;46.75;;;;;;;;5033170;28;51233;-49
2022/02/06 11:25:35;;;;;;;;;58.75;45.25;;;;;;;;5038493;28;51079;-48
2022/02/06 11:28:19;;;;;;;;;61.25;45.75;;;;;;;;5036046;28;51048;-50
2022/02/06 11:31:04;;;;;;;;;60.25;43.50;;;;;;;;5036798;28;51152;-50
2022/02/06 11:33:50;;;;;;;;;56.00;42.00;;;;;;;;5033385;28;51154;-50
2022/02/06 11:45:54;;;;;;;;;54.25;43.75;;;;;;;;5037826;28;51162;-45
2022/02/06 11:48:40;;;;;;;;;57.75;43.50;;;;;;;;5033929;28;51730;-49
2022/02/06 11:51:25;;;;;;;;;54.75;43.75;;;;;;;;5033634;28;51319;-48
2022/02/06 11:54:29;;;;;;;;;59.50;43.25;;;;;;;;5035836;28;51041;-50
2022/02/06 11:57:24;;;;;;;;;52.25;40.50;;;;;;;;5035677;28;51423;-48
2022/02/06 12:00:08;;;;;;;;;57.75;40.50;;;;;;;;5038336;28;51166;-52
2022/02/06 12:02:53;;;;;;;;;48.50;37.00;;;;;;;;5036971;28;51219;-52
2022/02/06 12:05:56;;;;;;;;;47.00;38.25;;;;;;;;5034923;28;51375;-49
2022/02/06 12:09:03;;;;;;;;;52.00;37.00;;;;;;;;5038233;28;51012;-51
2022/02/06 12:12:06;;;;;;;;;50.50;37.75;;;;;;;;5037414;28;51079;-52
2022/02/06 12:15:10;;;;;;;;;49.25;39.25;;;;;;;;5037596;28;51659;-52
2022/02/06 12:18:11;;;;;;;;;48.75;38.75;;;;;;;;5038003;28;51400;-48
2022/02/06 12:20:57;;;;;;;;;46.25;38.75;;;;;;;;5036899;28;51103;-47
2022/02/06 12:23:54;;;;;;;;;54.75;42.25;;;;;;;;5036299;28;51554;-46
2022/02/06 12:26:42;;;;;;;;;52.25;40.75;;;;;;;;5036683;28;50995;-49
2022/02/06 12:29:27;;;;;;;;;48.25;38.00;;;;;;;;5035680;28;51205;-48
2022/02/06 12:32:27;;;;;;;;;51.75;37.75;;;;;;;;5036325;28;51094;-49
2022/02/06 12:38:19;;;;;;;;;44.75;37.25;;;;;;;;5035975;28;51051;-50
2022/02/06 12:41:17;;;;;;;;;54.25;40.00;;;;;;;;5028927;28;51709;-48
2022/02/06 12:44:05;;;;;;;;;45.50;36.00;;;;;;;;5037918;28;51183;-49
2022/02/06 12:46:49;;;;;;;;;50.25;39.25;;;;;;;;5039437;28;51107;-48
2022/02/06 12:49:35;;;;;;;;;50.75;39.00;;;;;;;;5041443;28;51247;-47
2022/02/06 12:52:19;;;;;;;;;57.25;42.75;;;;;;;;5038383;28;51152;-48
2022/02/06 12:55:05;;;;;;;;;53.50;39.75;;;;;;;;5037235;28;51186;-44
2022/02/06 12:57:51;;;;;;;;;54.75;40.50;;;;;;;;5039134;28;51013;-45
2022/02/06 13:00:40;;;;;;;;;44.50;34.75;;;;;;;;5041334;28;51152;-44
2022/02/06 13:03:32;;;;;;;;;54.50;41.75;;;;;;;;5041131;28;51178;-48
2022/02/06 13:06:18;;;;;;;;;48.75;37.00;;;;;;;;5041232;28;51082;-51
2022/02/06 13:09:05;;;;;;;;;51.75;38.50;;;;;;;;5035594;28;51116;-52
2022/02/06 13:11:58;;;;;;;;;53.75;41.00;;;;;;;;5038598;28;51148;-51
2022/02/06 13:23:50;;;;;;;;;53.50;40.25;;;;;;;;5036193;28;51610;-51
2022/02/06 13:29:36;;;;;;;;;55.25;39.50;;;;;;;;5040746;28;51541;-47
2022/02/06 13:35:32;;;;;;;;;50.50;39.50;;;;;;;;5040435;28;51214;-51
2022/02/06 13:38:17;;;;;;;;;49.00;36.00;;;;;;;;5040821;28;51238;-51
2022/02/06 13:41:12;;;;;;;;;52.50;39.25;;;;;;;;5039030;28;51236;-52
2022/02/06 13:43:57;;;;;;;;;48.50;39.00;;;;;;;;5040071;28;51048;-50
2022/02/06 13:46:42;;;;;;;;;52.25;40.00;;;;;;;;5040015;28;51227;-46
2022/02/06 13:49:49;;;;;;;;;54.25;40.00;;;;;;;;5040190;28;51571;-50
2022/02/06 13:52:34;;;;;;;;;52.50;40.25;;;;;;;;5040189;28;51120;-50
2022/02/06 13:55:18;;;;;;;;;52.00;39.75;;;;;;;;5039693;28;51225;-47
2022/02/06 13:58:10;;;;;;;;;53.25;40.00;;;;;;;;5036920;28;51040;-49
2022/02/06 14:01:05;;;;;;;;;49.00;37.25;;;;;;;;5040204;28;51138;-46
2022/02/06 14:03:52;;;;;;;;;50.75;39.00;;;;;;;;5040298;28;51065;-46
2022/02/06 14:06:42;;;;;;;;;53.50;41.25;;;;;;;;5025011;28;51545;-54
2022/02/06 14:09:31;;;;;;;;;54.75;43.00;;;;;;;;5039181;28;51187;-47
2022/02/06 14:12:17;;;;;;;;;52.25;39.00;;;;;;;;5033380;28;51594;-48
2022/02/06 14:15:02;;;;;;;;;55.75;41.75;;;;;;;;5037362;28;51614;-45
2022/02/06 14:17:49;;;;;;;;;48.75;39.50;;;;;;;;5036583;28;51151;-48
2022/02/06 14:20:33;;;;;;;;;56.50;42.00;;;;;;;;5035186;28;51103;-46
2022/02/06 14:23:18;;;;;;;;;49.50;37.75;;;;;;;;5033485;28;51087;-50
2022/02/06 14:26:12;;;;;;;;;52.25;40.25;;;;;;;;5039375;28;51177;-48
2022/02/06 14:28:56;;;;;;;;;55.50;40.50;;;;;;;;5034086;28;51154;-47
2022/02/06 14:31:41;;;;;;;;;49.50;39.25;;;;;;;;5037078;28;51174;-47
2022/02/06 14:34:25;;;;;;;;;58.25;43.25;;;;;;;;5039864;28;51233;-45
2022/02/06 14:37:12;;;;;;;;;52.00;40.25;;;;;;;;5037727;28;51795;-48
2022/02/06 14:40:00;;;;;;;;;42.50;34.50;;;;;;;;5037974;28;51118;-49
2022/02/06 14:42:51;;;;;;;;;50.25;35.25;;;;;;;;5038164;28;51061;-48
2022/02/06 14:45:35;;;;;;;;;58.00;43.25;;;;;;;;5038209;28;51131;-49
2022/02/06 14:48:20;;;;;;;;;59.75;43.50;;;;;;;;5035044;28;51680;-49
2022/02/06 14:51:04;;;;;;;;;53.50;43.75;;;;;;;;5037199;28;51025;-50
2022/02/06 14:53:55;;;;;;;;;53.00;42.50;;;;;;;;5036704;28;51100;-51
2022/02/06 14:56:42;;;;;;;;;57.50;43.75;;;;;;;;5037209;28;51238;-49
2022/02/06 14:59:26;;;;;;;;;56.50;39.50;;;;;;;;5033908;28;51187;-43
2022/02/06 15:02:11;;;;;;;;;51.00;37.75;;;;;;;;5030466;28;51247;-51
2022/02/06 15:04:55;;;;;;;;;52.25;40.75;;;;;;;;5030338;28;51143;-46
2022/02/06 15:07:40;;;;;;;;;57.75;41.75;;;;;;;;5039357;28;51020;-50
2022/02/06 15:10:24;;;;;;;;;43.75;37.75;;;;;;;;5020162;28;51116;-50
2022/02/06 15:13:10;;;;;;;;;52.25;39.50;;;;;;;;5038985;28;52762;-53
2022/02/06 15:16:02;;;;;;;;;56.75;43.00;;;;;;;;5035890;28;51141;-51
2022/02/06 15:19:31;;;;;;;;;57.00;40.50;;;;;;;;5036326;28;51041;-54
2022/02/06 15:21:54;;;;;;;;;54.00;40.75;;;;;;;;5036890;28;51440;-48
2022/02/06 15:24:39;;;;;;;;;53.25;39.50;;;;;;;;5037197;28;51126;-49
2022/02/06 15:27:23;;;;;;;;;53.25;40.25;;;;;;;;5043576;28;51073;-50
2022/02/06 15:30:08;;;;;;;;;50.00;41.50;;;;;;;;5041487;28;51194;-46
2022/02/06 15:32:52;;;;;;;;;55.00;42.25;;;;;;;;5044702;28;51189;-53
2022/02/06 15:35:37;;;;;;;;;56.00;43.00;;;;;;;;5049439;28;51432;-49
2022/02/06 15:38:22;;;;;;;;;56.25;42.75;;;;;;;;5047015;28;51337;-47
2022/02/06 15:41:06;;;;;;;;;53.75;44.50;;;;;;;;5046409;28;51232;-51
2022/02/06 15:43:51;;;;;;;;;59.75;41.00;;;;;;;;5044945;28;51058;-46
2022/02/06 15:46:35;;;;;;;;;49.50;40.00;;;;;;;;5046571;28;51420;-51
2022/02/06 15:49:20;;;;;;;;;54.50;38.50;;;;;;;;5040977;28;51232;-45
2022/02/06 15:52:09;;;;;;;;;56.50;43.50;;;;;;;;5047035;28;51152;-45
2022/02/06 15:54:53;;;;;;;;;54.75;41.50;;;;;;;;5047563;28;51131;-47
2022/02/06 15:57:38;;;;;;;;;57.75;42.50;;;;;;;;5043590;28;51104;-45
2022/02/06 16:00:22;;;;;;;;;51.50;42.25;;;;;;;;5049280;28;51240;-49
2022/02/06 16:03:07;;;;;;;;;61.50;45.00;;;;;;;;5049088;28;51238;-51
2022/02/06 16:05:51;;;;;;;;;56.75;42.50;;;;;;;;5044643;28;51264;-51
2022/02/06 16:08:36;;;;;;;;;55.50;39.00;;;;;;;;5043933;28;51338;-51
2022/02/06 16:11:20;;;;;;;;;57.50;43.25;;;;;;;;5040018;28;51210;-48
2022/02/06 16:14:06;;;;;;;;;56.75;43.50;;;;;;;;5042391;28;51167;-48
2022/02/06 16:16:50;;;;;;;;;61.75;43.75;;;;;;;;5040319;28;51610;-49
2022/02/06 16:19:35;;;;;;;;;56.00;43.00;;;;;;;;5042301;28;51265;-52
2022/02/06 16:22:19;;;;;;;;;61.00;43.25;;;;;;;;5040914;28;51061;-49
2022/02/06 16:25:04;;;;;;;;;58.00;41.00;;;;;;;;5041331;28;51008;-51
2022/02/06 16:27:48;;;;;;;;;55.75;41.25;;;;;;;;5020757;28;51148;-45
2022/02/06 16:30:33;;;;;;;;;57.00;41.25;;;;;;;;5021847;28;51024;-51
2022/02/06 16:33:17;;;;;;;;;53.25;41.50;;;;;;;;5019720;28;51380;-50
2022/02/06 16:36:02;;;;;;;;;61.75;45.75;;;;;;;;5019393;28;51456;-47
2022/02/06 16:38:46;;;;;;;;;52.25;39.50;;;;;;;;5021642;28;51112;-50
2022/02/06 16:41:30;;;;;;;;;56.00;43.25;;;;;;;;5021942;28;51079;-51
2022/02/06 16:44:15;;;;;;;;;59.50;47.00;;;;;;;;5019476;28;51220;-45
2022/02/06 16:46:59;;;;;;;;;57.00;43.25;;;;;;;;5021192;28;51469;-49
2022/02/06 16:49:44;;;;;;;;;59.00;42.25;;;;;;;;5021806;28;51198;-49
2022/02/06 16:52:30;;;;;;;;;58.25;42.75;;;;;;;;5018439;28;51612;-48
2022/02/06 16:55:14;;;;;;;;;51.25;40.25;;;;;;;;5021486;28;51229;-48
2022/02/06 16:57:58;;;;;;;;;55.75;43.50;;;;;;;;5025111;28;51168;-47
2022/02/06 17:00:44;;;;;;;;;63.25;46.25;;;;;;;;5019859;28;51089;-51
2022/02/06 17:03:28;;;;;;;;;54.25;41.25;;;;;;;;5020719;28;51068;-50
2022/02/06 17:06:12;;;;;;;;;59.50;46.75;;;;;;;;5021099;28;51142;-49
2022/02/06 17:08:58;;;;;;;;;60.75;46.25;;;;;;;;5020963;28;51163;-50
2022/02/06 17:11:42;;;;;;;;;61.50;47.00;;;;;;;;5020898;28;51117;-48
2022/02/06 17:14:26;;;;;;;;;53.50;39.75;;;;;;;;5020380;28;51150;-52
2022/02/06 17:17:11;;;;;;;;;58.50;44.00;;;;;;;;5019244;28;51622;-46
2022/02/06 17:19:56;;;;;;;;;62.50;47.25;;;;;;;;5020603;28;51186;-50
2022/02/06 17:22:40;;;;;;;;;55.50;43.50;;;;;;;;5021040;28;51142;-46
2022/02/06 17:25:24;;;;;;;;;48.75;33.50;;;;;;;;5015349;28;51560;-48
2022/02/06 17:28:09;;;;;;;;;47.00;38.00;;;;;;;;5027973;28;53335;-49
2022/02/06 17:30:53;;;;;;;;;60.00;45.50;;;;;;;;5042703;28;51201;-47
2022/02/06 17:33:38;;;;;;;;;64.25;48.00;;;;;;;;5044368;28;51244;-44
2022/02/06 17:36:22;;;;;;;;;61.50;47.00;;;;;;;;5040389;28;51532;-50
2022/02/06 17:39:06;;;;;;;;;61.25;47.25;;;;;;;;5046004;28;51179;-51
2022/02/06 17:41:51;;;;;;;;;57.00;44.00;;;;;;;;5043465;28;52015;-47
2022/02/06 17:44:35;;;;;;;;;55.25;40.75;;;;;;;;5048077;28;51145;-52
2022/02/06 17:47:20;;;;;;;;;62.25;46.25;;;;;;;;5050427;28;51150;-50
2022/02/06 17:50:04;;;;;;;;;61.50;45.50;;;;;;;;5050312;28;51487;-45
2022/02/06 17:52:55;;;;;;;;;64.00;50.00;;;;;;;;5053493;28;51119;-46
2022/02/06 17:55:39;;;;;;;;;64.50;49.25;;;;;;;;5050225;28;51535;-47
2022/02/06 17:58:23;;;;;;;;;56.25;44.00;;;;;;;;5045170;28;51132;-48
2022/02/06 18:01:08;;;;;;;;;60.75;47.00;;;;;;;;5044860;28;51162;-47
2022/02/06 18:03:52;;;;;;;;;65.50;49.00;;;;;;;;5047504;28;51174;-49
2022/02/06 18:06:37;;;;;;;;;58.50;44.25;;;;;;;;5050202;28;51200;-47
2022/02/06 18:09:27;;;;;;;;;61.75;46.00;;;;;;;;5046237;28;51165;-47
2022/02/06 18:12:12;;;;;;;;;60.50;45.25;;;;;;;;5048085;28;51221;-47
2022/02/06 18:14:56;;;;;;;;;56.75;45.25;;;;;;;;5048761;28;51092;-43
2022/02/06 18:17:40;;;;;;;;;61.00;47.00;;;;;;;;5047166;28;51240;-48
2022/02/06 18:20:27;;;;;;;;;60.00;46.00;;;;;;;;5049008;28;52098;-46
2022/02/06 18:23:11;;;;;;;;;61.25;47.25;;;;;;;;5048185;28;51123;-45
2022/02/06 18:25:55;;;;;;;;;67.00;48.25;;;;;;;;5041123;28;52264;-44
2022/02/06 18:28:40;;;;;;;;;61.00;45.00;;;;;;;;5038688;28;51068;-45
2022/02/06 18:31:24;;;;;;;;;66.75;49.00;;;;;;;;5038082;28;51198;-51
2022/02/06 18:34:09;;;;;;;;;63.50;47.75;;;;;;;;5039091;28;51099;-48
2022/02/06 18:36:53;;;;;;;;;62.25;44.75;;;;;;;;5037812;28;51071;-45
2022/02/06 18:39:38;;;;;;;;;60.25;46.00;;;;;;;;5036701;28;51111;-44
2022/02/06 18:42:24;;;;;;;;;61.00;48.75;;;;;;;;5039199;28;51242;-54
2022/02/06 18:45:11;;;;;;;;;56.00;43.50;;;;;;;;5038828;28;51236;-51
2022/02/06 18:47:55;;;;;;;;;66.00;48.00;;;;;;;;5039797;28;51801;-50